KLAR/LAR METAR and TAF weather

Enter ICAO airport designator
Station Type Date Time Source
KLAR METAR 2021/09/28 02:53 UTC NOAA

KLAR 280253Z AUTO 15006KT 10SM CLR 15/M03 A3010 RMK AO2 SLP104 T01501033 53003


Station Type Date Time Source
KLAR Decoded METAR 2021/09/28 02:53 UTC NOAA

LARAMIE REGIONAL AIRPORT, WY, United States (KLAR) 41-19N 105-40W 2216M
Sep 27, 2021 - 10:53 PM EDT / 2021.09.28 0253 UTC
Wind: from the SSE (150 degrees) at 7 MPH (6 KT):0
Visibility: 10 mile(s):0
Sky conditions: clear
Temperature: 59.0 F (15.0 C)
Dew Point: 26.1 F (-3.3 C)
Relative Humidity: 28%
Pressure (altimeter): 30.1 in. Hg (1019 hPa)
Pressure tendency: 0.01 inches (0.3 hPa) higher than three hours ago
ob: KLAR 280253Z AUTO 15006KT 10SM CLR 15/M03 A3010 RMK AO2 SLP104 T01501033 53003
cycle: 3

Station Type Date Time Source
KLAR TAF 2021/09/27 18:22 UTC NOAA

TAF KLAR 271720Z 2718/2818 VRB04KT P6SM SKC
FM280600 18006KT P6SM FEW250

Example: see airport list